Edealina, Brazil
Current Conditions -  °F | °C
As of 12:00 PM on Friday 28 Nov 2014 (Local Time) from SBGO Reporting Station
Scattered Clouds Scattered Clouds  
Wind Chill: 79°   Ceiling: Unl
Heat Index: 81°   Visibility: 6mi
Dew Point: 66°   Wind: 9mph
Humidity: 65%   Direction: 310°NW
Pressure: 30.06"   Gusts: NA
Location:  17.42°S, 49.66°W
Report Text: SBGO 281400Z 31008KT 9999 SCT020 26/19 Q1018
Loading
Personal Weather Stations






























Interactive Weather Map New forecast layout! Learn more

10-Day Weather Forecast

Advertisements
Track Severe Weather on mobile